createdAt,value
2017-08-21T00:00:24.274Z,4.17
2017-08-21T00:02:51.803Z,4.47
2017-08-21T00:05:19.359Z,4.43
2017-08-21T00:07:46.886Z,4.23
2017-08-21T00:10:14.446Z,4.07
2017-08-21T00:12:41.974Z,4.00
2017-08-21T00:15:09.526Z,3.83
2017-08-21T00:17:37.066Z,4.20
2017-08-21T00:20:04.610Z,3.70
2017-08-21T00:22:32.140Z,4.53
2017-08-21T00:24:59.691Z,4.70
2017-08-21T00:27:27.226Z,4.60
2017-08-21T00:29:54.784Z,4.10
2017-08-21T00:32:22.314Z,4.23
2017-08-21T00:34:49.863Z,4.23
2017-08-21T00:37:17.389Z,3.70
2017-08-21T00:39:44.946Z,4.83
2017-08-21T00:42:12.478Z,4.10
2017-08-21T00:44:40.039Z,4.57
2017-08-21T00:47:07.575Z,4.00
2017-08-21T00:49:35.123Z,4.43
2017-08-21T00:52:02.648Z,3.80
2017-08-21T00:54:30.208Z,4.37
2017-08-21T00:56:57.739Z,4.10
2017-08-21T00:59:25.266Z,4.17
2017-08-21T01:01:52.811Z,4.20
2017-08-21T01:04:20.343Z,4.07
2017-08-21T01:06:47.886Z,4.20
2017-08-21T01:09:15.424Z,4.27
2017-08-21T01:11:42.969Z,3.97
2017-08-21T01:14:10.496Z,4.20
2017-08-21T01:16:38.056Z,4.27
2017-08-21T01:19:05.583Z,3.60
2017-08-21T01:21:33.134Z,4.20
2017-08-21T01:24:00.675Z,4.97
2017-08-21T01:26:28.234Z,4.03
2017-08-21T01:28:55.758Z,4.20
2017-08-21T01:31:23.302Z,4.27
2017-08-21T01:33:50.832Z,4.53
2017-08-21T01:36:18.387Z,5.10
2017-08-21T01:39:06.703Z,4.50
2017-08-21T01:41:34.255Z,4.77
2017-08-21T01:44:01.775Z,3.87
2017-08-21T01:46:29.322Z,4.70
2017-08-21T01:48:56.850Z,5.10
2017-08-21T01:51:24.407Z,5.00
2017-08-21T01:53:51.934Z,4.60
2017-08-21T01:56:19.483Z,5.00
2017-08-21T01:58:47.006Z,5.33
2017-08-21T02:01:14.567Z,4.43
2017-08-21T02:03:42.104Z,4.77
2017-08-21T02:06:09.640Z,5.63
2017-08-21T02:08:37.186Z,4.87
2017-08-21T02:11:04.711Z,5.13
2017-08-21T02:13:32.278Z,4.90
2017-08-21T02:15:59.812Z,4.70
2017-08-21T02:18:27.368Z,4.80
2017-08-21T02:20:54.899Z,4.80
2017-08-21T02:23:22.459Z,5.43
2017-08-21T02:25:49.990Z,5.03
2017-08-21T02:28:17.539Z,4.77
2017-08-21T02:30:45.062Z,4.70
2017-08-21T02:33:12.627Z,5.50
2017-08-21T02:35:40.168Z,5.50
2017-08-21T02:38:19.542Z,5.00
2017-08-21T02:40:47.081Z,4.90
2017-08-21T02:43:14.636Z,4.50
2017-08-21T02:45:42.171Z,5.13
2017-08-21T02:48:18.053Z,5.83
2017-08-21T02:50:45.591Z,5.43
2017-08-21T02:53:13.150Z,5.40
2017-08-21T02:55:40.678Z,5.27
2017-08-21T02:58:08.228Z,5.80
2017-08-21T03:00:35.763Z,5.80
2017-08-21T03:03:03.331Z,5.20
2017-08-21T03:05:30.869Z,5.10
2017-08-21T03:07:58.429Z,5.57
2017-08-21T03:10:25.966Z,5.60
2017-08-21T03:12:53.528Z,5.30
2017-08-21T03:15:21.064Z,5.43
2017-08-21T03:17:48.601Z,5.80
2017-08-21T03:20:16.211Z,5.53
2017-08-21T03:22:43.742Z,5.57
2017-08-21T03:25:11.295Z,5.10
2017-08-21T03:27:38.848Z,5.03
2017-08-21T03:30:06.418Z,5.73
2017-08-21T03:32:33.951Z,6.23
2017-08-21T03:35:01.504Z,6.00
2017-08-21T03:37:29.031Z,5.70
2017-08-21T03:39:56.582Z,5.70
2017-08-21T03:42:24.111Z,5.73
2017-08-21T03:44:51.679Z,6.07
2017-08-21T03:47:19.219Z,5.40
2017-08-21T03:49:46.788Z,5.70
2017-08-21T03:52:14.323Z,6.00
2017-08-21T03:54:41.874Z,6.10
2017-08-21T03:57:09.406Z,5.93
2017-08-21T03:59:36.958Z,6.70
2017-08-21T04:02:04.490Z,6.50
2017-08-21T04:04:32.039Z,6.13
2017-08-21T04:06:59.575Z,6.83
2017-08-21T04:09:27.130Z,7.40
2017-08-21T04:11:54.662Z,5.60
2017-08-21T04:14:22.216Z,6.30
2017-08-21T04:16:49.743Z,6.73
2017-08-21T04:19:17.271Z,6.27
2017-08-21T04:21:44.828Z,6.07
2017-08-21T04:24:12.351Z,5.27
2017-08-21T04:26:39.905Z,5.80
2017-08-21T04:29:07.431Z,6.10
2017-08-21T04:31:34.991Z,5.50
2017-08-21T04:34:02.523Z,5.00
2017-08-21T04:36:30.075Z,6.43
2017-08-21T04:38:57.612Z,6.03
2017-08-21T04:41:25.167Z,6.60
2017-08-21T04:43:52.711Z,6.50
2017-08-21T04:46:20.322Z,5.93
2017-08-21T04:48:47.858Z,6.23
2017-08-21T04:51:15.419Z,6.23
2017-08-21T04:53:42.996Z,7.03
2017-08-21T04:56:10.551Z,6.13
2017-08-21T04:58:38.084Z,6.57
2017-08-21T05:01:05.630Z,5.83
2017-08-21T05:03:33.155Z,6.17
2017-08-21T05:06:01.039Z,5.63
2017-08-21T05:08:28.582Z,5.73
2017-08-21T05:10:56.140Z,5.07
2017-08-21T05:13:23.657Z,5.33
2017-08-21T05:15:51.230Z,5.17
2017-08-21T05:18:18.763Z,5.30
2017-08-21T05:20:46.294Z,5.60
2017-08-21T05:23:13.846Z,5.70
2017-08-21T05:25:41.374Z,5.57
2017-08-21T05:28:08.919Z,6.17
2017-08-21T05:30:36.451Z,5.60
2017-08-21T05:33:04.011Z,5.83
2017-08-21T05:35:31.547Z,5.87
2017-08-21T05:37:59.099Z,6.50
2017-08-21T05:40:26.626Z,6.20
2017-08-21T05:42:54.188Z,5.50
2017-08-21T05:45:21.721Z,5.73
2017-08-21T05:47:49.270Z,5.53
2017-08-21T05:50:16.790Z,5.43
2017-08-21T05:52:44.376Z,6.17
2017-08-21T05:55:11.915Z,5.63
2017-08-21T05:57:39.470Z,5.50
2017-08-21T06:00:07.004Z,5.80
2017-08-21T06:02:34.565Z,5.40
2017-08-21T06:05:02.099Z,6.00
2017-08-21T06:07:29.654Z,6.20
2017-08-21T06:09:57.183Z,5.40
2017-08-21T06:12:24.743Z,7.90
2017-08-21T06:14:52.963Z,6.63
2017-08-21T06:17:20.997Z,5.50
2017-08-21T06:19:48.944Z,6.33
2017-08-21T06:22:16.470Z,5.13
2017-08-21T06:24:44.032Z,5.77
2017-08-21T06:29:36.975Z,5.67
2017-08-21T06:32:04.508Z,5.43
2017-08-21T06:34:32.091Z,6.53
2017-08-21T06:36:59.623Z,6.00
2017-08-21T06:39:27.175Z,5.30
2017-08-21T06:41:54.731Z,7.23
2017-08-21T06:44:22.289Z,6.13
2017-08-21T06:46:49.824Z,6.00
2017-08-21T06:49:17.374Z,7.00
2017-08-21T06:51:44.905Z,5.77
2017-08-21T06:54:12.464Z,6.27
2017-08-21T06:56:40.002Z,7.60
2017-08-21T06:59:07.564Z,7.07
2017-08-21T07:01:35.106Z,5.97
2017-08-21T07:04:02.662Z,7.40
2017-08-21T07:06:30.218Z,5.67
2017-08-21T07:08:57.788Z,7.30
2017-08-21T07:11:25.317Z,7.20
2017-08-21T07:13:52.877Z,7.33
2017-08-21T07:16:20.415Z,7.43
2017-08-21T07:18:47.946Z,7.40
2017-08-21T07:21:15.495Z,5.90
2017-08-21T07:23:43.018Z,6.40
2017-08-21T07:26:10.578Z,7.93
2017-08-21T07:28:38.106Z,5.50
2017-08-21T07:31:05.659Z,5.33
2017-08-21T07:33:33.190Z,4.90
2017-08-21T07:36:00.742Z,5.23
2017-08-21T07:38:28.266Z,5.33
2017-08-21T07:40:55.814Z,5.83
2017-08-21T07:43:23.346Z,4.90
2017-08-21T07:45:50.903Z,5.00
2017-08-21T07:48:18.438Z,5.13
2017-08-21T07:50:46.014Z,5.63
2017-08-21T07:53:13.578Z,4.53
2017-08-21T07:55:41.151Z,5.50
2017-08-21T07:58:08.697Z,4.70
2017-08-21T08:00:36.277Z,4.67
2017-08-21T08:03:03.818Z,4.80
2017-08-21T08:05:31.370Z,5.37
2017-08-21T08:07:58.910Z,5.83
2017-08-21T08:10:26.466Z,5.77
2017-08-21T08:12:54.004Z,5.93
2017-08-21T08:15:21.559Z,6.17
2017-08-21T08:17:49.099Z,5.10
2017-08-21T08:20:16.623Z,5.80
2017-08-21T08:22:44.188Z,5.10
2017-08-21T08:25:11.727Z,5.63
2017-08-21T08:27:39.287Z,4.80
2017-08-21T08:30:06.827Z,4.40
2017-08-21T08:32:34.423Z,4.77
2017-08-21T08:35:01.951Z,3.60
2017-08-21T08:37:29.506Z,4.57
2017-08-21T08:39:57.022Z,5.20
2017-08-21T08:42:24.567Z,4.23
2017-08-21T08:44:52.090Z,3.87
2017-08-21T08:47:19.633Z,5.47
2017-08-21T08:49:47.154Z,3.83
2017-08-21T08:52:14.698Z,4.27
2017-08-21T08:54:42.231Z,6.07
2017-08-21T08:57:09.779Z,4.30
2017-08-21T08:59:37.304Z,3.83
2017-08-21T09:02:04.850Z,4.37
2017-08-21T09:04:32.384Z,3.90
2017-08-21T09:06:59.935Z,3.87
2017-08-21T09:09:27.467Z,4.50
2017-08-21T09:11:55.014Z,3.67
2017-08-21T09:14:22.537Z,4.00
2017-08-21T09:16:50.099Z,4.50
2017-08-21T09:19:17.622Z,3.50
2017-08-21T09:21:45.149Z,4.13
2017-08-21T09:24:12.695Z,4.90
2017-08-21T09:26:40.220Z,3.73
2017-08-21T09:29:07.766Z,3.67
2017-08-21T09:31:35.297Z,4.30
2017-08-21T09:34:02.844Z,2.90
2017-08-21T09:36:30.363Z,3.87
2017-08-21T09:38:57.924Z,3.90
2017-08-21T09:41:25.451Z,2.70
2017-08-21T09:43:53.006Z,3.87
2017-08-21T09:46:20.530Z,4.60
2017-08-21T09:48:48.074Z,3.10
2017-08-21T09:51:15.594Z,4.33
2017-08-21T09:53:43.142Z,4.30
2017-08-21T09:56:10.670Z,2.57
2017-08-21T09:58:38.219Z,4.90
2017-08-21T10:01:05.743Z,4.03
2017-08-21T10:03:33.313Z,2.77
2017-08-21T10:06:00.838Z,4.07
2017-08-21T10:08:28.361Z,3.30
2017-08-21T10:10:55.942Z,2.90
2017-08-21T10:13:23.470Z,4.07
2017-08-21T10:15:51.023Z,3.50
2017-08-21T10:18:18.552Z,3.40
2017-08-21T10:20:46.116Z,4.30
2017-08-21T10:23:13.662Z,3.63
2017-08-21T10:25:41.214Z,3.67
2017-08-21T10:28:08.742Z,4.03
2017-08-21T10:30:36.291Z,3.37
2017-08-21T10:33:03.824Z,3.10
2017-08-21T10:35:31.380Z,4.00
2017-08-21T10:37:58.907Z,3.17
2017-08-21T10:40:26.456Z,3.43
2017-08-21T10:42:53.984Z,4.20
2017-08-21T10:45:21.530Z,3.40
2017-08-21T10:47:49.984Z,3.53
2017-08-21T10:50:17.530Z,4.60
2017-08-21T10:52:45.053Z,3.50
2017-08-21T10:55:12.599Z,2.93
2017-08-21T10:57:40.110Z,4.53
2017-08-21T11:00:07.655Z,3.33
2017-08-21T11:02:35.192Z,3.27
2017-08-21T11:05:02.747Z,3.17
2017-08-21T11:07:30.277Z,2.73
2017-08-21T11:09:57.826Z,3.30
2017-08-21T11:12:25.363Z,2.80
2017-08-21T11:14:52.901Z,3.80
2017-08-21T11:17:20.474Z,3.43
2017-08-21T11:19:48.056Z,2.80
2017-08-21T11:22:15.618Z,4.43
2017-08-21T11:24:43.143Z,3.07
2017-08-21T11:27:10.706Z,2.87
2017-08-21T11:29:38.255Z,4.00
2017-08-21T11:32:05.809Z,3.40
2017-08-21T11:34:33.352Z,3.30
2017-08-21T11:37:00.918Z,4.57
2017-08-21T11:39:28.448Z,3.40
2017-08-21T11:41:56.018Z,3.10
2017-08-21T11:44:23.564Z,3.67
2017-08-21T11:46:51.127Z,2.67
2017-08-21T11:49:18.661Z,2.80
2017-08-21T11:51:46.207Z,4.27
2017-08-21T11:54:13.738Z,3.80
2017-08-21T11:56:41.299Z,3.63
2017-08-21T11:59:08.832Z,5.37
2017-08-21T12:01:36.447Z,4.23
2017-08-21T12:04:04.082Z,3.87
2017-08-21T12:06:31.997Z,5.20
2017-08-21T12:08:59.562Z,4.20
2017-08-21T12:11:27.101Z,5.70
2017-08-21T12:13:54.642Z,5.87
2017-08-21T12:16:22.176Z,5.40
2017-08-21T12:18:49.727Z,6.90
2017-08-21T12:21:17.267Z,6.13
2017-08-21T12:23:44.839Z,5.20
2017-08-21T12:26:12.363Z,6.07
2017-08-21T12:28:39.937Z,7.43
2017-08-21T12:31:07.475Z,5.00
2017-08-21T12:33:35.044Z,6.30
2017-08-21T12:36:02.583Z,5.90
2017-08-21T12:38:30.163Z,5.30
2017-08-21T12:40:57.740Z,5.27
2017-08-21T12:43:25.295Z,5.00
2017-08-21T12:45:52.934Z,5.80
2017-08-21T12:48:20.503Z,5.30
2017-08-21T12:50:48.044Z,4.37
2017-08-21T12:53:15.592Z,4.73
2017-08-21T12:55:43.144Z,4.53
2017-08-21T12:58:10.699Z,3.77
2017-08-21T13:00:38.227Z,3.43
2017-08-21T13:03:05.810Z,5.13
2017-08-21T13:05:33.337Z,3.33
2017-08-21T13:08:00.951Z,3.43
2017-08-21T13:10:28.478Z,4.60
2017-08-21T13:12:56.140Z,3.40
2017-08-21T13:15:23.818Z,3.87
2017-08-21T13:17:51.349Z,4.07
2017-08-21T13:20:18.897Z,2.63
2017-08-21T13:22:46.434Z,3.70
2017-08-21T13:25:13.991Z,3.70
2017-08-21T13:27:41.633Z,3.13
2017-08-21T13:30:09.181Z,4.80
2017-08-21T13:32:36.717Z,3.70
2017-08-21T13:35:04.274Z,3.17
2017-08-21T13:37:31.893Z,4.47
2017-08-21T13:39:59.454Z,3.47
2017-08-21T13:42:26.981Z,2.80
2017-08-21T13:44:54.527Z,4.57
2017-08-21T13:47:22.069Z,4.37
2017-08-21T13:49:49.615Z,2.50
2017-08-21T13:52:17.134Z,4.50
2017-08-21T13:54:44.683Z,3.50
2017-08-21T13:57:12.223Z,2.70
2017-08-21T13:59:39.775Z,4.00
2017-08-21T14:02:07.302Z,2.90
2017-08-21T14:04:34.863Z,3.23
2017-08-21T14:07:02.386Z,4.43
2017-08-21T14:09:29.955Z,2.97
2017-08-21T14:11:57.487Z,3.90
2017-08-21T14:14:25.012Z,4.20
2017-08-21T14:16:52.559Z,3.37
2017-08-21T14:19:20.082Z,3.87
2017-08-21T14:21:47.643Z,5.20
2017-08-21T14:24:15.177Z,3.57
2017-08-21T14:26:42.735Z,3.77
2017-08-21T14:29:10.299Z,4.23
2017-08-21T14:31:37.907Z,3.40
2017-08-21T14:34:05.431Z,4.23
2017-08-21T14:36:32.983Z,4.00
2017-08-21T14:39:00.514Z,4.37
2017-08-21T14:41:28.058Z,4.30
2017-08-21T14:43:55.581Z,4.07
2017-08-21T14:46:26.541Z,2.53
2017-08-21T14:48:54.080Z,3.60
2017-08-21T14:51:21.639Z,2.60
2017-08-21T14:53:49.167Z,3.00
2017-08-21T14:56:16.723Z,5.13
2017-08-21T14:58:44.255Z,2.67
2017-08-21T15:01:11.815Z,2.80
2017-08-21T15:03:39.351Z,4.33
2017-08-21T15:06:06.904Z,2.57
2017-08-21T15:08:34.431Z,3.00
2017-08-21T15:11:01.991Z,4.20
2017-08-21T15:13:29.523Z,3.40
2017-08-21T15:15:57.298Z,3.70
2017-08-21T15:18:24.829Z,3.50
2017-08-21T15:20:52.359Z,2.50
2017-08-21T15:23:19.906Z,3.10
2017-08-21T15:25:47.423Z,3.17
2017-08-21T15:28:14.975Z,2.80
2017-08-21T15:30:42.512Z,4.27
2017-08-21T15:33:10.091Z,3.93
2017-08-21T15:35:37.614Z,3.40
2017-08-21T15:38:05.169Z,4.83
2017-08-21T15:40:32.703Z,3.90
2017-08-21T15:43:00.279Z,2.90
2017-08-21T15:45:27.803Z,3.73
2017-08-21T15:47:55.354Z,3.63
2017-08-21T15:50:22.874Z,2.70
2017-08-21T15:52:50.455Z,4.60
2017-08-21T15:55:17.983Z,3.40
2017-08-21T15:57:45.547Z,3.13
2017-08-21T16:00:13.078Z,2.70
2017-08-21T16:02:40.639Z,2.83
2017-08-21T16:05:08.176Z,2.50
2017-08-21T16:07:35.728Z,2.80
2017-08-21T16:10:03.256Z,2.27
2017-08-21T16:12:30.810Z,2.33
2017-08-21T16:14:58.340Z,2.30
2017-08-21T16:17:25.862Z,2.47
2017-08-21T16:19:53.410Z,2.80
2017-08-21T16:22:20.935Z,2.40
2017-08-21T16:24:48.483Z,2.43
2017-08-21T16:27:16.019Z,2.70
2017-08-21T16:29:43.566Z,2.70
2017-08-21T16:32:11.100Z,2.40
2017-08-21T16:34:38.654Z,2.57
2017-08-21T16:37:06.178Z,2.30
2017-08-21T16:39:33.743Z,2.30
2017-08-21T16:42:01.267Z,2.53
2017-08-21T16:44:28.819Z,2.40
2017-08-21T16:46:56.344Z,2.37
2017-08-21T16:49:23.901Z,2.33
2017-08-21T16:51:51.439Z,2.50
2017-08-21T16:54:18.990Z,2.60
2017-08-21T16:56:46.523Z,2.40
2017-08-21T16:59:14.071Z,2.90
2017-08-21T17:01:41.599Z,2.73
2017-08-21T17:04:09.159Z,2.50
2017-08-21T17:06:36.687Z,2.43
2017-08-21T17:09:04.240Z,2.27
2017-08-21T17:11:31.772Z,2.63
2017-08-21T17:13:59.319Z,2.20
2017-08-21T17:16:26.851Z,2.50
2017-08-21T17:18:54.415Z,2.57
2017-08-21T17:21:21.942Z,2.30
2017-08-21T17:23:49.474Z,2.60
2017-08-21T17:26:17.027Z,2.80
2017-08-21T17:28:44.550Z,2.60
2017-08-21T17:31:12.105Z,2.40
2017-08-21T17:33:39.638Z,2.90
2017-08-21T17:36:08.367Z,2.70
2017-08-21T17:38:36.093Z,2.43
2017-08-21T17:41:03.655Z,3.20
2017-08-21T17:43:31.433Z,3.07
2017-08-21T17:45:58.990Z,3.33
2017-08-21T17:48:26.519Z,2.80
2017-08-21T17:50:54.071Z,2.50
2017-08-21T17:53:21.595Z,3.27
2017-08-21T17:55:49.143Z,2.80
2017-08-21T17:58:19.066Z,2.80
2017-08-21T18:00:46.628Z,2.60
2017-08-21T18:03:14.155Z,2.87
2017-08-21T18:05:41.728Z,2.83
2017-08-21T18:08:09.272Z,3.00
2017-08-21T18:10:36.814Z,2.70
2017-08-21T18:13:17.678Z,2.50
2017-08-21T18:15:45.235Z,2.80
2017-08-21T18:18:12.764Z,3.07
2017-08-21T18:20:40.324Z,2.83
2017-08-21T18:23:07.883Z,3.83
2017-08-21T18:25:35.410Z,3.90
2017-08-21T18:28:02.959Z,3.10
2017-08-21T18:30:30.485Z,4.97
2017-08-21T18:32:58.035Z,4.70
2017-08-21T18:35:25.570Z,3.73
2017-08-21T18:37:53.123Z,4.93
2017-08-21T18:40:20.671Z,4.80
2017-08-21T18:42:48.270Z,3.50
2017-08-21T18:45:15.829Z,5.07
2017-08-21T18:47:43.405Z,3.40
2017-08-21T18:50:10.970Z,3.30
2017-08-21T18:52:38.532Z,5.10
2017-08-21T18:55:06.061Z,4.07
2017-08-21T18:57:33.627Z,5.00
2017-08-21T19:00:01.164Z,5.37
2017-08-21T19:02:28.743Z,4.27
2017-08-21T19:04:56.286Z,4.17
2017-08-21T19:07:23.860Z,4.77
2017-08-21T19:09:51.383Z,4.00
2017-08-21T19:12:18.939Z,4.20
2017-08-21T19:14:46.470Z,6.70
2017-08-21T19:17:14.014Z,3.53
2017-08-21T19:19:41.534Z,4.20
2017-08-21T19:22:09.083Z,4.83
2017-08-21T19:24:36.611Z,3.50
2017-08-21T19:27:04.179Z,5.10
2017-08-21T19:29:31.702Z,5.07
2017-08-21T19:31:59.235Z,5.00
2017-08-21T19:34:26.795Z,5.23
2017-08-21T19:36:54.314Z,5.30
2017-08-21T19:39:21.874Z,4.07
2017-08-21T19:41:49.399Z,4.30
2017-08-21T19:44:16.947Z,5.10
2017-08-21T19:46:44.480Z,3.90
2017-08-21T19:49:12.035Z,6.47
2017-08-21T19:51:39.569Z,4.70
2017-08-21T19:54:07.118Z,4.10
2017-08-21T19:56:34.654Z,5.37
2017-08-21T19:59:02.226Z,5.20
2017-08-21T20:01:29.962Z,3.40
2017-08-21T20:03:58.693Z,5.67
2017-08-21T20:06:26.259Z,4.80
2017-08-21T20:08:53.821Z,4.20
2017-08-21T20:11:21.353Z,5.87
2017-08-21T20:13:52.751Z,3.60
2017-08-21T20:16:20.282Z,5.10
2017-08-21T20:18:47.853Z,4.50
2017-08-21T20:21:15.385Z,3.90
2017-08-21T20:23:42.939Z,4.73
2017-08-21T20:26:10.472Z,5.03
2017-08-21T20:28:38.087Z,3.70
2017-08-21T20:31:05.623Z,5.97
2017-08-21T20:33:33.150Z,4.30
2017-08-21T20:36:00.776Z,3.70
2017-08-21T20:38:28.306Z,5.57
2017-08-21T20:40:55.859Z,4.60
2017-08-21T20:43:23.388Z,4.30
2017-08-21T20:45:50.964Z,5.10
2017-08-21T20:48:18.508Z,4.77
2017-08-21T20:50:46.072Z,5.03
2017-08-21T20:53:13.622Z,5.20
2017-08-21T20:55:41.178Z,4.33
2017-08-21T20:58:08.706Z,4.50
2017-08-21T21:00:36.265Z,5.20
2017-08-21T21:03:03.803Z,3.73
2017-08-21T21:05:31.363Z,4.67
2017-08-21T21:07:58.894Z,6.17
2017-08-21T21:10:26.464Z,4.40
2017-08-21T21:12:53.996Z,4.87
2017-08-21T21:15:21.562Z,5.10
2017-08-21T21:17:49.097Z,4.30
2017-08-21T21:20:16.659Z,5.10
2017-08-21T21:22:44.181Z,5.30
2017-08-21T21:25:11.741Z,5.70
2017-08-21T21:27:39.268Z,4.20
2017-08-21T21:30:06.826Z,5.20
2017-08-21T21:32:34.355Z,4.00
2017-08-21T21:35:01.908Z,4.50
2017-08-21T21:37:29.439Z,5.63
2017-08-21T21:39:56.958Z,4.50
2017-08-21T21:42:24.626Z,5.20
2017-08-21T21:44:52.155Z,5.30
2017-08-21T21:47:19.713Z,3.40
2017-08-21T21:49:47.235Z,4.93
2017-08-21T21:52:14.854Z,4.67
2017-08-21T21:54:42.383Z,4.30
2017-08-21T21:57:09.942Z,5.70
2017-08-21T21:59:37.477Z,5.37
2017-08-21T22:02:05.024Z,3.97
2017-08-21T22:04:32.554Z,3.87
2017-08-21T22:07:00.107Z,4.10
2017-08-21T22:09:27.639Z,4.73
2017-08-21T22:11:55.187Z,4.40
2017-08-21T22:14:22.719Z,4.27
2017-08-21T22:16:50.280Z,4.30
2017-08-21T22:19:17.815Z,4.50
2017-08-21T22:21:45.363Z,4.10
2017-08-21T22:24:12.893Z,3.97
2017-08-21T22:26:40.447Z,3.90
2017-08-21T22:29:07.973Z,4.13
2017-08-21T22:51:44.984Z,5.43
2017-08-21T22:54:12.535Z,5.00
2017-08-21T22:56:40.068Z,4.53
2017-08-21T22:59:07.619Z,5.73
2017-08-21T23:01:52.951Z,4.63
2017-08-21T23:04:20.511Z,4.90
2017-08-21T23:06:48.048Z,4.67
2017-08-21T23:09:15.594Z,4.43
2017-08-21T23:11:43.138Z,4.50
2017-08-21T23:14:10.708Z,4.97
2017-08-21T23:16:38.231Z,4.70
2017-08-21T23:19:05.774Z,4.80
2017-08-21T23:21:33.303Z,4.37
2017-08-21T23:24:00.855Z,5.03
2017-08-21T23:26:28.379Z,5.50
2017-08-21T23:28:55.934Z,4.77
2017-08-21T23:31:23.460Z,5.17
2017-08-21T23:33:51.002Z,4.77
2017-08-21T23:36:18.530Z,5.13
2017-08-21T23:38:46.083Z,5.10
2017-08-21T23:41:13.602Z,4.73
2017-08-21T23:43:41.146Z,5.03
2017-08-21T23:46:08.666Z,4.50
2017-08-21T23:48:36.194Z,5.03
2017-08-21T23:51:03.739Z,4.70
2017-08-21T23:53:31.263Z,4.40
2017-08-21T23:55:58.814Z,4.23
2017-08-21T23:58:26.345Z,4.50
